createdAt,value
2023-04-11T00:00:54.019Z,43.4254
2023-04-11T00:01:55.684Z,43.1731
2023-04-11T00:02:57.621Z,43.0231
2023-04-11T00:03:59.146Z,42.9854
2023-04-11T00:05:00.739Z,42.9069
2023-04-11T00:06:02.279Z,43.0031
2023-04-11T00:07:03.902Z,42.6177
2023-04-11T00:08:05.642Z,42.4115
2023-04-11T00:09:07.216Z,42.2462
2023-04-11T00:10:08.871Z,42.1069
2023-04-11T00:11:10.649Z,42.0746
2023-04-11T00:12:12.180Z,42.1285
2023-04-11T00:13:13.935Z,41.9685
2023-04-11T00:14:16.097Z,41.8162
2023-04-11T00:15:17.141Z,41.5062
2023-04-11T00:16:18.851Z,41.9108
2023-04-11T00:17:20.471Z,48.6485
2023-04-11T00:18:22.165Z,47.8892
2023-04-11T00:19:23.770Z,47.2685
2023-04-11T00:20:25.449Z,46.4854
2023-04-11T00:21:27.126Z,45.6808
2023-04-11T00:22:28.744Z,44.8131
2023-04-11T00:23:31.292Z,44.5008
2023-04-11T00:24:32.073Z,44.1592
2023-04-11T00:25:33.796Z,43.9208
2023-04-11T00:26:35.370Z,43.9392
2023-04-11T00:27:37.019Z,43.8923
2023-04-11T00:28:38.766Z,43.6846
2023-04-11T00:29:40.417Z,43.4662
2023-04-11T00:30:42.031Z,43.0577
2023-04-11T00:31:43.742Z,42.7592
2023-04-11T00:32:45.366Z,42.6423
2023-04-11T00:33:47.058Z,42.7392
2023-04-11T00:34:48.714Z,42.5969
2023-04-11T00:35:50.364Z,42.4223
2023-04-11T00:36:52.034Z,42.2023
2023-04-11T00:37:53.576Z,42.0277
2023-04-11T00:38:56.001Z,41.8654
2023-04-11T00:39:57.013Z,41.7531
2023-04-11T00:40:58.625Z,41.7762
2023-04-11T00:42:00.321Z,41.9315
2023-04-11T00:43:02.045Z,41.5792
2023-04-11T00:44:03.638Z,41.2231
2023-04-11T00:45:05.264Z,41.2531
2023-04-11T00:46:07.030Z,42.4946
2023-04-11T00:47:08.675Z,47.7162
2023-04-11T00:48:10.227Z,47.5062
2023-04-11T00:49:11.904Z,46.9308
2023-04-11T00:50:13.558Z,46.1215
2023-04-11T00:51:15.291Z,45.4631
2023-04-11T00:52:16.857Z,44.4338
2023-04-11T00:53:18.548Z,44.2915
2023-04-11T00:54:20.213Z,43.9154
2023-04-11T00:55:21.800Z,43.7108
2023-04-11T00:56:23.432Z,43.6385
2023-04-11T00:57:25.155Z,43.4969
2023-04-11T00:58:26.790Z,43.3138
2023-04-11T00:59:28.395Z,43.1508
2023-04-11T01:00:30.176Z,43.1631
2023-04-11T01:01:32.801Z,42.7954
2023-04-11T01:02:33.446Z,42.5246
2023-04-11T01:03:35.160Z,42.3885
2023-04-11T01:04:36.770Z,42.5615
2023-04-11T01:05:38.401Z,42.4262
2023-04-11T01:06:40.032Z,42.5746
2023-04-11T01:07:41.678Z,42.2600
2023-04-11T01:08:43.304Z,42.1646
2023-04-11T01:09:45.006Z,41.8238
2023-04-11T01:10:46.634Z,41.5623
2023-04-11T01:11:48.266Z,41.3985
2023-04-11T01:12:49.906Z,41.3100
2023-04-11T01:13:51.592Z,41.3569
2023-04-11T01:14:53.267Z,41.8338
2023-04-11T01:15:54.927Z,41.8523
2023-04-11T01:16:56.699Z,41.4031
2023-04-11T01:17:58.258Z,41.2662
2023-04-11T01:18:59.901Z,41.0246
2023-04-11T01:20:01.766Z,40.9608
2023-04-11T01:21:03.177Z,40.9162
2023-04-11T01:22:04.755Z,41.0054
2023-04-11T01:23:05.306Z,41.1683
2023-04-11T01:24:08.139Z,41.1464
2023-04-11T01:25:10.247Z,40.9808
2023-04-11T01:26:11.518Z,43.4131
2023-04-11T01:27:13.170Z,46.8638
2023-04-11T01:28:14.891Z,46.4531
2023-04-11T01:29:16.409Z,45.9708
2023-04-11T01:30:18.237Z,45.3808
2023-04-11T01:31:19.728Z,44.8523
2023-04-11T01:32:21.436Z,44.1385
2023-04-11T01:33:23.063Z,44.0346
2023-04-11T01:34:24.755Z,43.8023
2023-04-11T01:35:27.212Z,43.6462
2023-04-11T01:36:28.023Z,43.7815
2023-04-11T01:37:29.590Z,43.7238
2023-04-11T01:38:31.290Z,43.7931
2023-04-11T01:39:33.011Z,43.6492
2023-04-11T01:40:34.649Z,43.5500
2023-04-11T01:41:36.251Z,43.4323
2023-04-11T01:42:38.001Z,43.0077
2023-04-11T01:43:39.529Z,42.8546
2023-04-11T01:44:41.200Z,42.6562
2023-04-11T01:45:42.881Z,42.4623
2023-04-11T01:46:44.561Z,42.5762
2023-04-11T01:47:47.046Z,42.7546
2023-04-11T01:48:47.945Z,42.7377
2023-04-11T01:49:49.485Z,42.7269
2023-04-11T01:50:51.152Z,42.4585
2023-04-11T01:51:52.795Z,42.2315
2023-04-11T01:52:54.524Z,42.5685
2023-04-11T01:53:56.123Z,42.3746
2023-04-11T01:54:58.291Z,42.3485
2023-04-11T01:55:59.416Z,42.3546
2023-04-11T01:57:01.016Z,41.9931
2023-04-11T01:58:02.737Z,41.8369
2023-04-11T01:59:04.393Z,41.6038
2023-04-11T02:00:06.706Z,41.4977
2023-04-11T02:01:07.859Z,41.3454
2023-04-11T02:02:09.471Z,41.4177
2023-04-11T02:03:11.121Z,41.4746
2023-04-11T02:04:12.825Z,42.2277
2023-04-11T02:05:14.344Z,46.3123
2023-04-11T02:06:16.598Z,46.7846
2023-04-11T02:07:17.658Z,46.4031
2023-04-11T02:08:19.218Z,45.7492
2023-04-11T02:09:20.892Z,45.1277
2023-04-11T02:10:22.533Z,44.3446
2023-04-11T02:11:24.322Z,44.0031
2023-04-11T02:12:25.870Z,43.9908
2023-04-11T02:13:27.416Z,43.8931
2023-04-11T02:14:29.133Z,44.0054
2023-04-11T02:15:30.934Z,43.9677
2023-04-11T02:16:32.536Z,44.0269
2023-04-11T02:17:34.226Z,44.0177
2023-04-11T02:18:35.728Z,43.6692
2023-04-11T02:19:37.457Z,43.4946
2023-04-11T02:20:39.140Z,43.3838
2023-04-11T02:21:40.790Z,43.1208
2023-04-11T02:22:42.458Z,42.7346
2023-04-11T02:23:44.147Z,42.8415
2023-04-11T02:24:45.741Z,42.7231
2023-04-11T02:25:48.224Z,42.6415
2023-04-11T02:26:49.148Z,42.4915
2023-04-11T02:27:50.803Z,42.5708
2023-04-11T02:28:52.462Z,42.5462
2023-04-11T02:29:54.031Z,42.5531
2023-04-11T02:30:55.732Z,42.1954
2023-04-11T02:31:57.374Z,41.9531
2023-04-11T02:32:59.028Z,41.8600
2023-04-11T02:34:00.635Z,42.0208
2023-04-11T02:35:02.320Z,42.0877
2023-04-11T02:36:04.110Z,41.9331
2023-04-11T02:37:05.747Z,44.6546
2023-04-11T02:38:07.189Z,47.7315
2023-04-11T02:39:08.912Z,47.3977
2023-04-11T02:40:10.495Z,46.8838
2023-04-11T02:41:12.190Z,46.2285
2023-04-11T02:42:14.583Z,45.7815
2023-04-11T02:43:15.601Z,44.9785
2023-04-11T02:44:17.207Z,44.9592
2023-04-11T02:45:18.881Z,44.6808
2023-04-11T02:46:20.443Z,44.6246
2023-04-11T02:47:22.362Z,44.7992
2023-04-11T02:48:23.861Z,44.7215
2023-04-11T02:49:25.428Z,44.8177
2023-04-11T02:50:27.124Z,44.5031
2023-04-11T02:51:28.816Z,44.1008
2023-04-11T02:52:30.444Z,43.9777
2023-04-11T02:53:32.075Z,43.9369
2023-04-11T02:54:33.806Z,43.8815
2023-04-11T02:55:35.422Z,43.3854
2023-04-11T02:56:37.019Z,42.2808
2023-04-11T02:57:38.648Z,41.5192
2023-04-11T02:58:40.324Z,40.9215
2023-04-11T02:59:41.942Z,40.4654
2023-04-11T03:00:43.644Z,40.2654
2023-04-11T03:01:45.351Z,40.2623
2023-04-11T03:02:46.933Z,40.4531
2023-04-11T03:03:48.595Z,40.5669
2023-04-11T03:04:50.207Z,40.5808
2023-04-11T03:05:51.785Z,40.8054
2023-04-11T03:06:53.438Z,40.8515
2023-04-11T03:07:55.237Z,40.8215
2023-04-11T03:08:57.489Z,40.8777
2023-04-11T03:09:58.526Z,40.8754
2023-04-11T03:11:00.082Z,40.8354
2023-04-11T03:12:01.726Z,40.9154
2023-04-11T03:13:04.312Z,40.8746
2023-04-11T03:14:05.070Z,40.8985
2023-04-11T03:15:06.738Z,40.8315
2023-04-11T03:16:08.435Z,40.8415
2023-04-11T03:17:09.986Z,40.8700
2023-04-11T03:18:11.698Z,40.8362
2023-04-11T03:19:13.423Z,41.0454
2023-04-11T03:20:14.993Z,41.1285
2023-04-11T03:21:16.620Z,40.9615
2023-04-11T03:22:18.256Z,40.8438
2023-04-11T03:23:19.963Z,40.7362
2023-04-11T03:24:21.591Z,40.7000
2023-04-11T03:25:23.335Z,40.7108
2023-04-11T03:26:24.942Z,40.7900
2023-04-11T03:27:26.547Z,41.0569
2023-04-11T03:28:29.236Z,41.0038
2023-04-11T03:29:29.905Z,41.0246
2023-04-11T03:30:31.512Z,41.0046
2023-04-11T03:31:33.195Z,40.9085
2023-04-11T03:32:34.848Z,40.9238
2023-04-11T03:33:37.387Z,40.9608
2023-04-11T03:34:38.198Z,41.2523
2023-04-11T03:35:39.887Z,41.2100
2023-04-11T03:36:41.491Z,41.2731
2023-04-11T03:37:43.076Z,41.1369
2023-04-11T03:38:44.699Z,41.1208
2023-04-11T03:39:46.477Z,41.1162
2023-04-11T03:40:48.070Z,41.2554
2023-04-11T03:41:49.738Z,41.2823
2023-04-11T03:42:51.368Z,41.3077
2023-04-11T03:43:53.013Z,41.5062
2023-04-11T03:44:54.740Z,41.3846
2023-04-11T03:45:56.380Z,41.4092
2023-04-11T03:46:58.067Z,41.3792
2023-04-11T03:47:59.660Z,41.4538
2023-04-11T03:49:01.270Z,41.4800
2023-04-11T03:50:03.291Z,41.4715
2023-04-11T03:51:04.602Z,41.4946
2023-04-11T03:52:06.216Z,41.6523
2023-04-11T03:53:07.854Z,42.0777
2023-04-11T03:54:09.514Z,42.1462
2023-04-11T03:55:11.186Z,42.1323
2023-04-11T03:56:12.822Z,42.1046
2023-04-11T03:57:14.587Z,42.0154
2023-04-11T03:58:16.168Z,42.0346
2023-04-11T03:59:17.816Z,42.1238
2023-04-11T04:00:20.139Z,42.0700
2023-04-11T04:01:21.141Z,42.3115
2023-04-11T04:02:22.957Z,42.3877
2023-04-11T04:03:24.680Z,42.4731
2023-04-11T04:04:26.262Z,42.5069
2023-04-11T04:05:27.752Z,42.4915
2023-04-11T04:06:29.370Z,42.5954
2023-04-11T04:07:31.077Z,42.6931
2023-04-11T04:08:32.690Z,42.7977
2023-04-11T04:09:34.431Z,42.7762
2023-04-11T04:10:35.973Z,43.0900
2023-04-11T04:11:37.665Z,43.1200
2023-04-11T04:12:39.362Z,43.2562
2023-04-11T04:13:40.979Z,43.1485
2023-04-11T04:14:42.662Z,43.1654
2023-04-11T04:15:44.300Z,43.1254
2023-04-11T04:16:46.060Z,43.1962
2023-04-11T04:17:47.618Z,43.4046
2023-04-11T04:18:49.249Z,43.6208
2023-04-11T04:19:50.903Z,43.7785
2023-04-11T04:20:52.533Z,43.9669
2023-04-11T04:21:54.210Z,43.6723
2023-04-11T04:22:55.830Z,43.7215
2023-04-11T04:23:57.622Z,43.6669
2023-04-11T04:24:59.445Z,43.9585
2023-04-11T04:26:00.831Z,43.9208
2023-04-11T04:27:02.528Z,43.8562
2023-04-11T04:28:04.081Z,43.8492
2023-04-11T04:29:05.756Z,43.8192
2023-04-11T04:30:07.462Z,43.9815
2023-04-11T04:31:09.078Z,44.1292
2023-04-11T04:32:10.883Z,44.3408
2023-04-11T04:33:12.535Z,44.4708
2023-04-11T04:34:14.007Z,44.6162
2023-04-11T04:35:15.672Z,44.8492
2023-04-11T04:36:17.225Z,44.9800
2023-04-11T04:37:18.940Z,44.8508
2023-04-11T04:38:20.556Z,44.6646
2023-04-11T04:39:22.208Z,44.6746
2023-04-11T04:40:23.913Z,44.8223
2023-04-11T04:41:25.517Z,45.0685
2023-04-11T04:42:27.172Z,45.0208
2023-04-11T04:43:28.925Z,45.0692
2023-04-11T04:44:30.529Z,45.1215
2023-04-11T04:45:32.374Z,45.2938
2023-04-11T04:46:33.828Z,45.2008
2023-04-11T04:47:35.529Z,45.5177
2023-04-11T04:48:37.124Z,45.4254
2023-04-11T04:49:38.762Z,45.4192
2023-04-11T04:50:40.474Z,45.4838
2023-04-11T04:51:42.072Z,45.4962
2023-04-11T04:52:43.666Z,45.7238
2023-04-11T04:53:45.430Z,45.8846
2023-04-11T04:54:47.078Z,46.0531
2023-04-11T04:55:48.736Z,45.8431
2023-04-11T04:56:50.329Z,45.7100
2023-04-11T04:57:52.051Z,45.7285
2023-04-11T04:58:53.575Z,45.8377
2023-04-11T04:59:55.289Z,45.8046
2023-04-11T05:00:56.952Z,45.6723
2023-04-11T05:01:58.639Z,45.3654
2023-04-11T05:03:00.398Z,45.2723
2023-04-11T05:04:02.489Z,45.2615
2023-04-11T05:05:03.623Z,45.3777
2023-04-11T05:06:05.257Z,45.5038
2023-04-11T05:07:06.873Z,45.6100
2023-04-11T05:08:08.506Z,45.8408
2023-04-11T05:09:10.153Z,45.9454
2023-04-11T05:10:11.832Z,45.7838
2023-04-11T05:11:13.798Z,45.6600
2023-04-11T05:12:15.064Z,45.4777
2023-04-11T05:13:16.704Z,45.2531
2023-04-11T05:14:18.388Z,45.4708
2023-04-11T05:15:20.416Z,46.0338
2023-04-11T05:16:21.817Z,46.5254
2023-04-11T05:17:25.182Z,46.8446
2023-04-11T05:18:25.046Z,46.8946
2023-04-11T05:19:26.681Z,47.1415
2023-04-11T05:20:29.250Z,47.4038
2023-04-11T05:21:30.835Z,47.8477
2023-04-11T05:22:31.625Z,48.3108
2023-04-11T05:23:33.372Z,48.2777
2023-04-11T05:24:34.987Z,48.2638
2023-04-11T05:25:36.754Z,48.4462
2023-04-11T05:26:38.966Z,48.6585
2023-04-11T05:27:39.994Z,48.8162
2023-04-11T05:28:41.782Z,49.1915
2023-04-11T05:29:43.345Z,49.0746
2023-04-11T05:30:44.968Z,49.0638
2023-04-11T05:31:46.924Z,49.1700
2023-04-11T05:32:48.345Z,49.3931
2023-04-11T05:33:51.017Z,49.3969
2023-04-11T05:34:51.635Z,49.9062
2023-04-11T05:35:53.324Z,49.6900
2023-04-11T05:36:54.875Z,49.5908
2023-04-11T05:37:56.742Z,49.7962
2023-04-11T05:38:58.260Z,49.9731
2023-04-11T05:39:59.820Z,49.9700
2023-04-11T05:41:01.453Z,50.2208
2023-04-11T05:42:03.151Z,50.1200
2023-04-11T05:43:04.999Z,50.0292
2023-04-11T05:44:06.390Z,49.9977
2023-04-11T05:45:08.089Z,50.4969
2023-04-11T05:46:09.740Z,50.2231
2023-04-11T05:47:11.595Z,50.6846
2023-04-11T05:48:14.227Z,50.5254
2023-04-11T05:49:14.788Z,50.3550
2023-04-11T05:50:16.483Z,50.3600
2023-04-11T05:51:18.194Z,50.4992
2023-04-11T05:52:19.930Z,50.4708
2023-04-11T05:53:21.376Z,51.0377
2023-04-11T05:54:23.044Z,50.6369
2023-04-11T05:55:24.719Z,50.5831
2023-04-11T05:56:26.352Z,50.7454
2023-04-11T05:57:28.337Z,50.7854
2023-04-11T05:58:29.673Z,50.8892
2023-04-11T05:59:31.364Z,51.0523
2023-04-11T06:00:32.958Z,50.6808
2023-04-11T06:01:34.520Z,50.7454
2023-04-11T06:02:36.295Z,50.8492
2023-04-11T06:03:37.912Z,50.8500
2023-04-11T06:04:40.117Z,51.1808
2023-04-11T06:05:41.133Z,51.2269
2023-04-11T06:06:42.752Z,50.7892
2023-04-11T06:07:44.443Z,50.8231
2023-04-11T06:08:46.159Z,50.9415
2023-04-11T06:09:47.834Z,50.9085
2023-04-11T06:10:49.502Z,51.1738
2023-04-11T06:11:51.124Z,51.3900
2023-04-11T06:12:52.780Z,50.9692
2023-04-11T06:13:54.545Z,51.1192
2023-04-11T06:14:56.019Z,50.9877
2023-04-11T06:15:57.873Z,50.9931
2023-04-11T06:16:59.391Z,51.5108
2023-04-11T06:18:01.196Z,51.2677
2023-04-11T06:19:02.649Z,51.0662
2023-04-11T06:20:05.919Z,51.1385
2023-04-11T06:21:06.125Z,51.2762
2023-04-11T06:22:07.758Z,51.3546
2023-04-11T06:23:09.968Z,51.5177
2023-04-11T06:24:10.915Z,51.3777
2023-04-11T06:25:12.602Z,51.2300
2023-04-11T06:26:14.234Z,51.1577
2023-04-11T06:27:16.844Z,51.2792
2023-04-11T06:28:17.642Z,51.3600
2023-04-11T06:29:19.945Z,51.6508
2023-04-11T06:30:21.051Z,51.4800
2023-04-11T06:31:23.569Z,51.3700
2023-04-11T06:32:24.633Z,51.4492
2023-04-11T06:33:25.755Z,51.5038
2023-04-11T06:34:27.677Z,51.7108
2023-04-11T06:35:29.166Z,51.7054
2023-04-11T06:36:30.787Z,51.4031
2023-04-11T06:37:32.512Z,51.4246
2023-04-11T06:38:34.586Z,51.6462
2023-04-11T06:39:35.825Z,51.7131
2023-04-11T06:40:37.452Z,51.9631
2023-04-11T06:41:39.026Z,51.6223
2023-04-11T06:42:41.050Z,51.4208
2023-04-11T06:43:42.539Z,51.4638
2023-04-11T06:44:44.373Z,51.5315
2023-04-11T06:45:45.652Z,51.8508
2023-04-11T06:46:47.488Z,51.7977
2023-04-11T06:47:49.075Z,51.5985
2023-04-11T06:48:50.634Z,51.5723
2023-04-11T06:49:52.240Z,51.5523
2023-04-11T06:50:55.046Z,51.6731
2023-04-11T06:51:55.548Z,51.9254
2023-04-11T06:52:57.299Z,51.8638
2023-04-11T06:53:58.888Z,51.5462
2023-04-11T06:55:00.564Z,51.4015
2023-04-11T06:56:02.164Z,51.4477
2023-04-11T06:57:03.881Z,51.5000
2023-04-11T06:58:05.355Z,51.9054
2023-04-11T06:59:07.301Z,51.8023
2023-04-11T07:00:08.727Z,51.7115
2023-04-11T07:01:10.373Z,51.5477
2023-04-11T07:02:12.112Z,51.5577
2023-04-11T07:03:13.797Z,51.9223
2023-04-11T07:04:15.516Z,52.3477
2023-04-11T07:05:16.981Z,51.8769
2023-04-11T07:06:18.696Z,51.5823
2023-04-11T07:07:20.318Z,51.4377
2023-04-11T07:08:21.894Z,51.5392
2023-04-11T07:09:23.592Z,51.7023
2023-04-11T07:10:25.258Z,51.4454
2023-04-11T07:11:26.950Z,51.5962
2023-04-11T07:12:28.458Z,51.5446
2023-04-11T07:13:30.904Z,51.3254
2023-04-11T07:14:31.904Z,51.4169
2023-04-11T07:15:33.463Z,51.5292
2023-04-11T07:16:35.170Z,51.9015
2023-04-11T07:17:36.967Z,51.6885
2023-04-11T07:18:38.400Z,51.3692
2023-04-11T07:19:40.103Z,51.1677
2023-04-11T07:20:41.725Z,51.1969
2023-04-11T07:21:43.405Z,51.3600
2023-04-11T07:22:45.032Z,51.8715
2023-04-11T07:23:46.661Z,51.5254
2023-04-11T07:24:48.340Z,51.1854
2023-04-11T07:25:49.953Z,51.1077
2023-04-11T07:26:51.798Z,51.0185
2023-04-11T07:27:53.334Z,51.2485
2023-04-11T07:28:54.972Z,51.5308
2023-04-11T07:29:56.830Z,51.4431
2023-04-11T07:30:58.244Z,51.2792
2023-04-11T07:31:59.863Z,51.0515
2023-04-11T07:33:01.505Z,50.9900
2023-04-11T07:34:03.135Z,51.1538
2023-04-11T07:35:05.050Z,51.3700
2023-04-11T07:36:06.499Z,51.3723
2023-04-11T07:37:08.081Z,51.1377
2023-04-11T07:38:09.790Z,50.8338
2023-04-11T07:39:11.460Z,50.6885
2023-04-11T07:40:13.522Z,50.8200
2023-04-11T07:41:14.694Z,51.1100
2023-04-11T07:42:16.311Z,51.0685
2023-04-11T07:43:18.116Z,51.3146
2023-04-11T07:44:19.825Z,51.4054
2023-04-11T07:45:21.365Z,51.2423
2023-04-11T07:46:22.949Z,51.3577
2023-04-11T07:47:24.603Z,51.2154
2023-04-11T07:48:26.344Z,51.3962
2023-04-11T07:49:27.948Z,51.2792
2023-04-11T07:50:29.768Z,51.0400
2023-04-11T07:51:31.154Z,50.9038
2023-04-11T07:52:32.911Z,50.9215
2023-04-11T07:53:34.504Z,50.9946
2023-04-11T07:54:36.101Z,51.2862
2023-04-11T07:55:37.837Z,51.1485
2023-04-11T07:56:40.405Z,50.9192
2023-04-11T07:57:41.087Z,50.6846
2023-04-11T07:58:42.772Z,50.4469
2023-04-11T07:59:44.572Z,50.6415
2023-04-11T08:00:45.991Z,50.7815
2023-04-11T08:01:47.775Z,50.8654
2023-04-11T08:02:50.356Z,51.0454
2023-04-11T08:03:51.076Z,50.7285
2023-04-11T08:04:52.754Z,50.6462
2023-04-11T08:05:54.239Z,50.6600
2023-04-11T08:06:55.896Z,50.8338
2023-04-11T08:07:57.568Z,50.8723
2023-04-11T08:08:59.285Z,50.7354
2023-04-11T08:10:00.848Z,50.5385
2023-04-11T08:11:02.506Z,50.3523
2023-04-11T08:12:04.200Z,50.2746
2023-04-11T08:13:05.856Z,50.4285
2023-04-11T08:14:07.416Z,50.6431
2023-04-11T08:15:09.167Z,50.4200
2023-04-11T08:16:10.837Z,49.9669
2023-04-11T08:17:25.143Z,49.6877
2023-04-11T08:18:14.068Z,49.5442
2023-04-11T08:19:15.698Z,49.6208
2023-04-11T08:20:17.416Z,49.9823
2023-04-11T08:21:19.045Z,49.9615
2023-04-11T08:22:21.022Z,49.7292
2023-04-11T08:23:22.384Z,49.3277
2023-04-11T08:24:23.962Z,49.2500
2023-04-11T08:25:25.630Z,49.1723
2023-04-11T08:26:27.957Z,49.3000
2023-04-11T08:27:28.912Z,49.2200
2023-04-11T08:28:30.714Z,49.0531
2023-04-11T08:29:32.436Z,48.8438
2023-04-11T08:30:33.868Z,48.9569
2023-04-11T08:31:35.456Z,49.1154
2023-04-11T08:32:37.420Z,49.4685
2023-04-11T08:33:38.713Z,49.4323
2023-04-11T08:34:40.389Z,49.3323
2023-04-11T08:35:42.112Z,49.2569
2023-04-11T08:36:43.712Z,49.1438
2023-04-11T08:37:45.938Z,49.3223
2023-04-11T08:38:47.023Z,49.7977
2023-04-11T08:39:48.709Z,49.5162
2023-04-11T08:40:50.532Z,49.4069
2023-04-11T08:41:52.201Z,49.3823
2023-04-11T08:42:53.633Z,49.2423
2023-04-11T08:43:55.572Z,49.6169
2023-04-11T08:44:56.925Z,49.6938
2023-04-11T08:45:58.569Z,49.5415
2023-04-11T08:47:00.283Z,49.7300
2023-04-11T08:48:01.907Z,49.5000
2023-04-11T08:49:03.703Z,49.2377
2023-04-11T08:50:05.091Z,49.3031
2023-04-11T08:51:06.807Z,49.2138
2023-04-11T08:52:08.807Z,49.2669
2023-04-11T08:53:10.055Z,48.9677
2023-04-11T08:54:11.726Z,48.7546
2023-04-11T08:55:13.413Z,48.6238
2023-04-11T08:56:15.023Z,48.6777
2023-04-11T08:57:16.722Z,48.8715
2023-04-11T08:58:18.414Z,48.9777
2023-04-11T08:59:20.052Z,48.6254
2023-04-11T09:00:21.613Z,48.5469
2023-04-11T09:01:23.355Z,48.2862
2023-04-11T09:02:25.109Z,48.2592
2023-04-11T09:03:26.605Z,48.5708
2023-04-11T09:04:29.073Z,48.1423
2023-04-11T09:05:30.202Z,47.7508
2023-04-11T09:06:31.598Z,47.5431
2023-04-11T09:07:33.216Z,47.5169
2023-04-11T09:08:34.830Z,47.6762
2023-04-11T09:09:36.471Z,47.8377
2023-04-11T09:10:38.089Z,47.5785
2023-04-11T09:11:39.764Z,47.0785
2023-04-11T09:12:41.408Z,46.9246
2023-04-11T09:13:43.817Z,46.8000
2023-04-11T09:14:44.694Z,46.9646
2023-04-11T09:15:46.451Z,47.0000
2023-04-11T09:16:47.898Z,46.3700
2023-04-11T09:17:49.546Z,45.8969
2023-04-11T09:18:51.209Z,45.7377
2023-04-11T09:19:52.872Z,45.6608
2023-04-11T09:20:54.584Z,45.8077
2023-04-11T09:21:56.205Z,45.7800
2023-04-11T09:22:57.821Z,45.3669
2023-04-11T09:23:59.427Z,44.9308
2023-04-11T09:25:01.146Z,44.8323
2023-04-11T09:26:02.840Z,44.7062
2023-04-11T09:27:04.454Z,44.7762
2023-04-11T09:28:06.137Z,44.7938
2023-04-11T09:29:07.746Z,44.4323
2023-04-11T09:30:09.397Z,44.0785
2023-04-11T09:31:11.423Z,44.2346
2023-04-11T09:32:13.403Z,44.1938
2023-04-11T09:33:14.359Z,44.3908
2023-04-11T09:34:16.414Z,44.0854
2023-04-11T09:35:18.236Z,43.6523
2023-04-11T09:36:19.330Z,43.6908
2023-04-11T09:37:21.050Z,43.5362
2023-04-11T09:38:22.825Z,43.8769
2023-04-11T09:39:24.296Z,43.9285
2023-04-11T09:40:25.905Z,43.9338
2023-04-11T09:41:27.813Z,43.5638
2023-04-11T09:42:29.311Z,43.7431
2023-04-11T09:43:30.922Z,43.5415
2023-04-11T09:44:32.701Z,43.6015
2023-04-11T09:45:44.212Z,43.7677
2023-04-11T09:46:35.809Z,43.5567
2023-04-11T09:47:37.498Z,43.0600
2023-04-11T09:48:46.502Z,42.9362
2023-04-11T09:49:40.837Z,43.1100
2023-04-11T09:50:42.448Z,43.2900
2023-04-11T09:51:44.025Z,43.3869
2023-04-11T09:52:45.689Z,43.0677
2023-04-11T09:53:47.397Z,42.4808
2023-04-11T09:54:48.980Z,42.4269
2023-04-11T09:55:50.662Z,42.4085
2023-04-11T09:56:52.348Z,42.5046
2023-04-11T09:57:54.918Z,42.5592
2023-04-11T09:58:55.872Z,42.2454
2023-04-11T09:59:58.789Z,41.6815
2023-04-11T10:00:58.814Z,42.1569
2023-04-11T10:02:00.625Z,41.9069
2023-04-11T10:03:02.613Z,41.8308
2023-04-11T10:04:04.589Z,41.8008
2023-04-11T10:05:05.609Z,41.3269
2023-04-11T10:06:07.215Z,40.8746
2023-04-11T10:07:08.842Z,41.0585
2023-04-11T10:08:10.515Z,40.9562
2023-04-11T10:09:12.182Z,41.0638
2023-04-11T10:10:13.783Z,40.9477
2023-04-11T10:11:15.438Z,40.6500
2023-04-11T10:12:17.149Z,40.3354
2023-04-11T10:13:18.840Z,40.4685
2023-04-11T10:14:20.532Z,40.4062
2023-04-11T10:15:21.981Z,40.3877
2023-04-11T10:16:23.821Z,40.3877
2023-04-11T10:17:25.411Z,39.9477
2023-04-11T10:18:27.004Z,39.6108
2023-04-11T10:19:28.686Z,39.9369
2023-04-11T10:20:30.319Z,39.7785
2023-04-11T10:21:32.026Z,39.7662
2023-04-11T10:22:33.576Z,39.6831
2023-04-11T10:23:35.272Z,39.3200
2023-04-11T10:24:36.972Z,39.0931
2023-04-11T10:25:38.559Z,39.2954
2023-04-11T10:26:40.173Z,39.3377
2023-04-11T10:27:41.841Z,39.4531
2023-04-11T10:28:43.726Z,39.1254
2023-04-11T10:29:45.282Z,38.9108
2023-04-11T10:30:46.866Z,38.7385
2023-04-11T10:31:48.634Z,39.0323
2023-04-11T10:32:50.191Z,39.1585
2023-04-11T10:33:51.989Z,39.0346
2023-04-11T10:34:53.556Z,38.8269
2023-04-11T10:35:55.171Z,38.5308
2023-04-11T10:36:56.764Z,38.5915
2023-04-11T10:37:58.990Z,38.8569
2023-04-11T10:39:00.090Z,38.9685
2023-04-11T10:40:01.816Z,39.0954
2023-04-11T10:41:03.470Z,38.8492
2023-04-11T10:42:05.032Z,38.4092
2023-04-11T10:43:07.499Z,38.6469
2023-04-11T10:44:08.362Z,38.6508
2023-04-11T10:45:10.144Z,38.8092
2023-04-11T10:46:11.590Z,38.8762
2023-04-11T10:47:13.593Z,38.7038
2023-04-11T10:48:14.911Z,38.4746
2023-04-11T10:49:16.578Z,38.8131
2023-04-11T10:50:18.655Z,38.6508
2023-04-11T10:51:19.891Z,38.9262
2023-04-11T10:52:21.570Z,39.1038
2023-04-11T10:53:23.217Z,38.9431
2023-04-11T10:54:24.883Z,38.5446
2023-04-11T10:55:27.086Z,38.6715
2023-04-11T10:56:28.184Z,38.7608
2023-04-11T10:57:29.841Z,39.0869
2023-04-11T10:58:31.475Z,39.1085
2023-04-11T10:59:33.097Z,38.8200
2023-04-11T11:00:35.198Z,38.3562
2023-04-11T11:01:42.966Z,38.4908
2023-04-11T11:02:38.425Z,38.6283
2023-04-11T11:03:39.926Z,39.0008
2023-04-11T11:04:41.417Z,39.0185
2023-04-11T11:05:42.997Z,38.7177
2023-04-11T11:06:51.103Z,38.3554
2023-04-11T11:07:46.251Z,38.3458
2023-04-11T11:08:48.397Z,38.5954
2023-04-11T11:09:49.514Z,38.8392
2023-04-11T11:10:51.274Z,38.6138
2023-04-11T11:11:52.818Z,38.2954
2023-04-11T11:12:54.549Z,37.8477
2023-04-11T11:13:56.490Z,38.0223
2023-04-11T11:14:57.814Z,38.1438
2023-04-11T11:15:59.418Z,38.4554
2023-04-11T11:17:01.222Z,38.4354
2023-04-11T11:18:02.756Z,38.0762
2023-04-11T11:19:04.872Z,37.6931
2023-04-11T11:20:06.039Z,37.7777
2023-04-11T11:21:14.170Z,38.0254
2023-04-11T11:22:09.307Z,37.9725
2023-04-11T11:23:14.125Z,38.0531
2023-04-11T11:24:17.585Z,37.8050
2023-04-11T11:25:19.189Z,37.6231
2023-04-11T11:26:20.806Z,37.9131
2023-04-11T11:27:22.413Z,38.0685
2023-04-11T11:28:24.169Z,38.2615
2023-04-11T11:29:25.798Z,38.1662
2023-04-11T11:30:27.357Z,37.7800
2023-04-11T11:31:30.033Z,37.7585
2023-04-11T11:32:30.641Z,37.8600
2023-04-11T11:33:32.396Z,38.0208
2023-04-11T11:34:34.056Z,38.0946
2023-04-11T11:35:35.688Z,38.0685
2023-04-11T11:36:37.249Z,37.7738
2023-04-11T11:37:38.896Z,37.5477
2023-04-11T11:38:41.390Z,37.6292
2023-04-11T11:39:42.238Z,37.7108
2023-04-11T11:40:43.807Z,37.8731
2023-04-11T11:41:46.560Z,37.8231
2023-04-11T11:42:47.140Z,37.5492
2023-04-11T11:43:48.736Z,37.5062
2023-04-11T11:44:50.550Z,37.5700
2023-04-11T11:45:52.138Z,37.9062
2023-04-11T11:46:53.742Z,38.0023
2023-04-11T11:47:55.886Z,37.8038
2023-04-11T11:48:57.288Z,37.4962
2023-04-11T11:49:58.668Z,37.2831
2023-04-11T11:51:01.008Z,37.4315
2023-04-11T11:52:02.099Z,37.7562
2023-04-11T11:53:03.702Z,37.7900
2023-04-11T11:54:05.351Z,37.6300
2023-04-11T11:55:10.860Z,37.1323
2023-04-11T11:56:08.713Z,36.9792
2023-04-11T11:57:10.680Z,37.0046
2023-04-11T11:58:12.153Z,37.0938
2023-04-11T11:59:13.672Z,37.4238
2023-04-11T12:00:15.290Z,37.0454
2023-04-11T12:01:17.196Z,36.9115
2023-04-11T12:02:18.691Z,36.9962
2023-04-11T12:03:20.608Z,37.3338
2023-04-11T12:04:22.189Z,37.4323
2023-04-11T12:05:23.864Z,37.5131
2023-04-11T12:06:25.419Z,37.3246
2023-04-11T12:07:27.010Z,37.4915
2023-04-11T12:08:28.553Z,37.2269
2023-04-11T12:09:30.208Z,37.2369
2023-04-11T12:10:31.894Z,37.2400
2023-04-11T12:11:34.013Z,37.5223
2023-04-11T12:12:35.180Z,37.4969
2023-04-11T12:13:36.856Z,37.3469
2023-04-11T12:14:38.417Z,37.1077
2023-04-11T12:15:40.100Z,37.3808
2023-04-11T12:16:41.798Z,37.4331
2023-04-11T12:17:43.435Z,37.6500
2023-04-11T12:18:45.131Z,37.6269
2023-04-11T12:19:46.776Z,37.6546
2023-04-11T12:20:48.364Z,37.4400
2023-04-11T12:21:50.030Z,37.5885
2023-04-11T12:22:53.674Z,37.4931
2023-04-11T12:23:53.540Z,37.9408
2023-04-11T12:24:54.840Z,37.9031
2023-04-11T12:25:56.668Z,37.9331